sensor_id;sensor_type;location;lat;lon;timestamp;P1;durP1;ratioP1;P2;durP2;ratioP2
19329;SDS011;9799;48.214;16.388;2022-11-15T00:02:06;54.23;;;31.00;;
19329;SDS011;9799;48.214;16.388;2022-11-15T00:05:28;53.00;;;28.80;;
19329;SDS011;9799;48.214;16.388;2022-11-15T00:08:49;51.53;;;28.60;;
19329;SDS011;9799;48.214;16.388;2022-11-15T00:12:11;53.77;;;29.67;;
19329;SDS011;9799;48.214;16.388;2022-11-15T00:15:35;51.03;;;28.33;;
19329;SDS011;9799;48.214;16.388;2022-11-15T00:18:57;48.73;;;28.63;;
19329;SDS011;9799;48.214;16.388;2022-11-15T00:22:19;50.53;;;28.93;;
19329;SDS011;9799;48.214;16.388;2022-11-15T00:25:40;50.63;;;27.53;;
19329;SDS011;9799;48.214;16.388;2022-11-15T00:29:02;46.83;;;27.23;;
19329;SDS011;9799;48.214;16.388;2022-11-15T00:32:26;55.50;;;28.53;;
19329;SDS011;9799;48.214;16.388;2022-11-15T00:35:51;45.50;;;26.63;;
19329;SDS011;9799;48.214;16.388;2022-11-15T00:39:13;50.77;;;28.93;;
19329;SDS011;9799;48.214;16.388;2022-11-15T00:42:34;56.07;;;28.97;;
19329;SDS011;9799;48.214;16.388;2022-11-15T00:45:56;49.47;;;26.03;;
19329;SDS011;9799;48.214;16.388;2022-11-15T00:49:20;50.47;;;27.73;;
19329;SDS011;9799;48.214;16.388;2022-11-15T00:52:41;57.40;;;27.97;;
19329;SDS011;9799;48.214;16.388;2022-11-15T00:56:17;51.27;;;26.77;;
19329;SDS011;9799;48.214;16.388;2022-11-15T00:59:57;52.40;;;29.43;;
19329;SDS011;9799;48.214;16.388;2022-11-15T01:03:40;56.40;;;29.77;;
19329;SDS011;9799;48.214;16.388;2022-11-15T01:07:05;54.73;;;29.40;;
19329;SDS011;9799;48.214;16.388;2022-11-15T01:10:27;56.50;;;29.57;;
19329;SDS011;9799;48.214;16.388;2022-11-15T01:13:49;54.97;;;29.87;;
19329;SDS011;9799;48.214;16.388;2022-11-15T01:17:10;56.20;;;30.33;;
19329;SDS011;9799;48.214;16.388;2022-11-15T01:20:32;52.67;;;28.73;;
19329;SDS011;9799;48.214;16.388;2022-11-15T01:23:55;58.97;;;30.20;;
19329;SDS011;9799;48.214;16.388;2022-11-15T01:27:17;53.93;;;29.30;;
19329;SDS011;9799;48.214;16.388;2022-11-15T01:30:38;51.70;;;29.63;;
19329;SDS011;9799;48.214;16.388;2022-11-15T01:34:00;53.90;;;27.03;;
19329;SDS011;9799;48.214;16.388;2022-11-15T01:37:21;57.23;;;29.40;;
19329;SDS011;9799;48.214;16.388;2022-11-15T01:40:44;53.17;;;28.63;;
19329;SDS011;9799;48.214;16.388;2022-11-15T01:47:58;53.37;;;28.40;;
19329;SDS011;9799;48.214;16.388;2022-11-15T01:51:20;57.73;;;28.40;;
19329;SDS011;9799;48.214;16.388;2022-11-15T01:54:44;51.77;;;27.30;;
19329;SDS011;9799;48.214;16.388;2022-11-15T01:58:08;51.90;;;27.53;;
19329;SDS011;9799;48.214;16.388;2022-11-15T02:01:30;60.63;;;30.97;;
19329;SDS011;9799;48.214;16.388;2022-11-15T02:04:53;57.07;;;28.57;;
19329;SDS011;9799;48.214;16.388;2022-11-15T02:08:15;51.13;;;28.47;;
19329;SDS011;9799;48.214;16.388;2022-11-15T02:11:40;54.97;;;28.03;;
19329;SDS011;9799;48.214;16.388;2022-11-15T02:15:03;54.00;;;29.57;;
19329;SDS011;9799;48.214;16.388;2022-11-15T02:18:27;50.37;;;26.40;;
19329;SDS011;9799;48.214;16.388;2022-11-15T02:21:56;44.57;;;25.87;;
19329;SDS011;9799;48.214;16.388;2022-11-15T02:25:33;48.63;;;25.57;;
19329;SDS011;9799;48.214;16.388;2022-11-15T02:29:01;50.37;;;26.60;;
19329;SDS011;9799;48.214;16.388;2022-11-15T02:32:27;45.27;;;26.83;;
19329;SDS011;9799;48.214;16.388;2022-11-15T02:35:57;50.77;;;26.23;;
19329;SDS011;9799;48.214;16.388;2022-11-15T02:39:21;47.50;;;25.37;;
19329;SDS011;9799;48.214;16.388;2022-11-15T02:42:49;44.63;;;24.87;;
19329;SDS011;9799;48.214;16.388;2022-11-15T02:46:32;43.77;;;24.33;;
19329;SDS011;9799;48.214;16.388;2022-11-15T02:50:17;44.57;;;24.40;;
19329;SDS011;9799;48.214;16.388;2022-11-15T02:53:41;38.57;;;21.83;;
19329;SDS011;9799;48.214;16.388;2022-11-15T02:57:04;41.37;;;24.03;;
19329;SDS011;9799;48.214;16.388;2022-11-15T03:00:27;41.17;;;23.93;;
19329;SDS011;9799;48.214;16.388;2022-11-15T03:03:58;41.47;;;23.87;;
19329;SDS011;9799;48.214;16.388;2022-11-15T03:07:29;50.83;;;26.93;;
19329;SDS011;9799;48.214;16.388;2022-11-15T03:10:56;49.07;;;26.00;;
19329;SDS011;9799;48.214;16.388;2022-11-15T03:14:29;47.07;;;26.00;;
19329;SDS011;9799;48.214;16.388;2022-11-15T03:17:53;45.47;;;24.80;;
19329;SDS011;9799;48.214;16.388;2022-11-15T03:21:18;46.47;;;25.33;;
19329;SDS011;9799;48.214;16.388;2022-11-15T03:24:43;40.43;;;23.57;;
19329;SDS011;9799;48.214;16.388;2022-11-15T03:28:08;44.77;;;24.87;;
19329;SDS011;9799;48.214;16.388;2022-11-15T03:31:32;44.50;;;24.23;;
19329;SDS011;9799;48.214;16.388;2022-11-15T03:35:10;48.50;;;24.43;;
19329;SDS011;9799;48.214;16.388;2022-11-15T03:38:33;44.77;;;24.43;;
19329;SDS011;9799;48.214;16.388;2022-11-15T03:42:00;43.30;;;22.77;;
19329;SDS011;9799;48.214;16.388;2022-11-15T03:45:28;46.13;;;26.13;;
19329;SDS011;9799;48.214;16.388;2022-11-15T03:48:54;52.80;;;25.43;;
19329;SDS011;9799;48.214;16.388;2022-11-15T03:52:20;48.57;;;25.23;;
19329;SDS011;9799;48.214;16.388;2022-11-15T03:55:42;48.73;;;26.30;;
19329;SDS011;9799;48.214;16.388;2022-11-15T03:59:05;48.63;;;25.43;;
19329;SDS011;9799;48.214;16.388;2022-11-15T04:02:26;43.93;;;24.30;;
19329;SDS011;9799;48.214;16.388;2022-11-15T04:05:47;47.73;;;25.83;;
19329;SDS011;9799;48.214;16.388;2022-11-15T04:09:08;47.00;;;25.60;;
19329;SDS011;9799;48.214;16.388;2022-11-15T04:12:30;51.90;;;26.10;;
19329;SDS011;9799;48.214;16.388;2022-11-15T04:15:53;48.97;;;25.60;;
19329;SDS011;9799;48.214;16.388;2022-11-15T04:19:14;46.57;;;25.50;;
19329;SDS011;9799;48.214;16.388;2022-11-15T04:22:53;54.87;;;26.33;;
19329;SDS011;9799;48.214;16.388;2022-11-15T04:26:32;51.57;;;25.53;;
19329;SDS011;9799;48.214;16.388;2022-11-15T04:29:54;50.20;;;27.20;;
19329;SDS011;9799;48.214;16.388;2022-11-15T04:33:16;55.80;;;26.27;;
19329;SDS011;9799;48.214;16.388;2022-11-15T04:36:37;50.23;;;26.83;;
19329;SDS011;9799;48.214;16.388;2022-11-15T04:40:16;53.70;;;27.47;;
19329;SDS011;9799;48.214;16.388;2022-11-15T04:43:37;59.77;;;30.00;;
19329;SDS011;9799;48.214;16.388;2022-11-15T04:46:58;62.23;;;30.17;;
19329;SDS011;9799;48.214;16.388;2022-11-15T04:50:21;73.67;;;36.57;;
19329;SDS011;9799;48.214;16.388;2022-11-15T04:53:42;66.23;;;31.83;;
19329;SDS011;9799;48.214;16.388;2022-11-15T04:57:03;68.87;;;31.13;;
19329;SDS011;9799;48.214;16.388;2022-11-15T05:00:25;70.00;;;32.67;;
19329;SDS011;9799;48.214;16.388;2022-11-15T05:03:47;62.63;;;29.97;;
19329;SDS011;9799;48.214;16.388;2022-11-15T05:07:27;69.87;;;32.80;;
19329;SDS011;9799;48.214;16.388;2022-11-15T05:10:48;63.20;;;31.67;;
19329;SDS011;9799;48.214;16.388;2022-11-15T05:14:09;67.27;;;33.00;;
19329;SDS011;9799;48.214;16.388;2022-11-15T05:17:31;64.67;;;30.50;;
19329;SDS011;9799;48.214;16.388;2022-11-15T05:20:52;66.00;;;30.53;;
19329;SDS011;9799;48.214;16.388;2022-11-15T05:24:14;66.90;;;33.00;;
19329;SDS011;9799;48.214;16.388;2022-11-15T05:27:35;63.50;;;32.47;;
19329;SDS011;9799;48.214;16.388;2022-11-15T05:31:00;74.33;;;34.40;;
19329;SDS011;9799;48.214;16.388;2022-11-15T05:34:21;67.07;;;32.30;;
19329;SDS011;9799;48.214;16.388;2022-11-15T05:37:44;64.40;;;31.90;;
19329;SDS011;9799;48.214;16.388;2022-11-15T05:41:06;73.53;;;34.27;;
19329;SDS011;9799;48.214;16.388;2022-11-15T05:44:28;68.80;;;33.83;;
19329;SDS011;9799;48.214;16.388;2022-11-15T05:47:51;71.07;;;33.67;;
19329;SDS011;9799;48.214;16.388;2022-11-15T05:51:14;72.00;;;36.80;;
19329;SDS011;9799;48.214;16.388;2022-11-15T05:54:37;67.90;;;32.80;;
19329;SDS011;9799;48.214;16.388;2022-11-15T05:58:00;69.67;;;35.37;;
19329;SDS011;9799;48.214;16.388;2022-11-15T06:01:22;73.43;;;34.43;;
19329;SDS011;9799;48.214;16.388;2022-11-15T06:04:43;71.63;;;33.87;;
19329;SDS011;9799;48.214;16.388;2022-11-15T06:08:04;74.43;;;34.23;;
19329;SDS011;9799;48.214;16.388;2022-11-15T06:11:26;73.33;;;33.77;;
19329;SDS011;9799;48.214;16.388;2022-11-15T06:14:48;63.90;;;34.10;;
19329;SDS011;9799;48.214;16.388;2022-11-15T06:18:09;68.70;;;32.83;;
19329;SDS011;9799;48.214;16.388;2022-11-15T06:21:30;73.07;;;34.20;;
19329;SDS011;9799;48.214;16.388;2022-11-15T06:24:52;70.03;;;35.73;;
19329;SDS011;9799;48.214;16.388;2022-11-15T06:28:13;73.00;;;34.53;;
19329;SDS011;9799;48.214;16.388;2022-11-15T06:31:35;69.10;;;33.83;;
19329;SDS011;9799;48.214;16.388;2022-11-15T06:34:56;68.03;;;34.33;;
19329;SDS011;9799;48.214;16.388;2022-11-15T06:38:18;68.37;;;35.10;;
19329;SDS011;9799;48.214;16.388;2022-11-15T06:41:39;56.10;;;29.70;;
19329;SDS011;9799;48.214;16.388;2022-11-15T06:45:00;59.43;;;29.43;;
19329;SDS011;9799;48.214;16.388;2022-11-15T06:48:23;63.90;;;32.43;;
19329;SDS011;9799;48.214;16.388;2022-11-15T06:51:44;65.80;;;30.30;;
19329;SDS011;9799;48.214;16.388;2022-11-15T06:55:05;64.60;;;30.40;;
19329;SDS011;9799;48.214;16.388;2022-11-15T06:58:28;56.53;;;31.07;;
19329;SDS011;9799;48.214;16.388;2022-11-15T07:01:50;64.17;;;31.67;;
19329;SDS011;9799;48.214;16.388;2022-11-15T07:05:13;63.20;;;33.07;;
19329;SDS011;9799;48.214;16.388;2022-11-15T07:08:35;61.77;;;30.33;;
19329;SDS011;9799;48.214;16.388;2022-11-15T07:11:57;57.20;;;31.10;;
19329;SDS011;9799;48.214;16.388;2022-11-15T07:15:19;69.47;;;32.00;;
19329;SDS011;9799;48.214;16.388;2022-11-15T07:18:41;57.07;;;30.53;;
19329;SDS011;9799;48.214;16.388;2022-11-15T07:22:03;62.37;;;32.00;;
19329;SDS011;9799;48.214;16.388;2022-11-15T07:25:24;73.83;;;32.40;;
19329;SDS011;9799;48.214;16.388;2022-11-15T07:28:45;71.77;;;30.87;;
19329;SDS011;9799;48.214;16.388;2022-11-15T07:32:07;67.37;;;31.70;;
19329;SDS011;9799;48.214;16.388;2022-11-15T07:35:29;67.07;;;31.30;;
19329;SDS011;9799;48.214;16.388;2022-11-15T07:38:52;67.90;;;33.50;;
19329;SDS011;9799;48.214;16.388;2022-11-15T07:42:13;65.03;;;32.63;;
19329;SDS011;9799;48.214;16.388;2022-11-15T07:45:52;62.03;;;31.93;;
19329;SDS011;9799;48.214;16.388;2022-11-15T07:49:13;62.57;;;31.67;;
19329;SDS011;9799;48.214;16.388;2022-11-15T07:52:34;62.00;;;31.53;;
19329;SDS011;9799;48.214;16.388;2022-11-15T07:55:57;65.53;;;30.40;;
19329;SDS011;9799;48.214;16.388;2022-11-15T07:59:18;62.97;;;31.97;;
19329;SDS011;9799;48.214;16.388;2022-11-15T08:02:39;58.20;;;28.70;;
19329;SDS011;9799;48.214;16.388;2022-11-15T08:06:01;65.03;;;31.40;;
19329;SDS011;9799;48.214;16.388;2022-11-15T08:09:23;67.27;;;34.17;;
19329;SDS011;9799;48.214;16.388;2022-11-15T08:12:45;68.57;;;33.33;;
19329;SDS011;9799;48.214;16.388;2022-11-15T08:16:08;66.33;;;31.57;;
19329;SDS011;9799;48.214;16.388;2022-11-15T08:19:31;65.90;;;31.60;;
19329;SDS011;9799;48.214;16.388;2022-11-15T08:22:52;63.17;;;31.40;;
19329;SDS011;9799;48.214;16.388;2022-11-15T08:26:13;62.57;;;32.27;;
19329;SDS011;9799;48.214;16.388;2022-11-15T08:29:36;68.80;;;33.13;;
19329;SDS011;9799;48.214;16.388;2022-11-15T08:32:58;73.47;;;33.73;;
19329;SDS011;9799;48.214;16.388;2022-11-15T08:36:19;68.67;;;33.03;;
19329;SDS011;9799;48.214;16.388;2022-11-15T08:39:40;69.50;;;33.73;;
19329;SDS011;9799;48.214;16.388;2022-11-15T08:43:01;61.27;;;32.97;;
19329;SDS011;9799;48.214;16.388;2022-11-15T08:46:24;61.83;;;30.83;;
19329;SDS011;9799;48.214;16.388;2022-11-15T08:49:45;71.77;;;33.30;;
19329;SDS011;9799;48.214;16.388;2022-11-15T08:53:07;58.07;;;30.80;;
19329;SDS011;9799;48.214;16.388;2022-11-15T08:56:28;67.80;;;33.40;;
19329;SDS011;9799;48.214;16.388;2022-11-15T08:59:50;66.67;;;31.80;;
19329;SDS011;9799;48.214;16.388;2022-11-15T09:03:12;67.20;;;33.07;;
19329;SDS011;9799;48.214;16.388;2022-11-15T09:06:34;65.77;;;32.80;;
19329;SDS011;9799;48.214;16.388;2022-11-15T09:09:55;61.33;;;32.37;;
19329;SDS011;9799;48.214;16.388;2022-11-15T09:13:16;62.57;;;31.07;;
19329;SDS011;9799;48.214;16.388;2022-11-15T09:16:38;63.53;;;30.70;;
19329;SDS011;9799;48.214;16.388;2022-11-15T09:20:00;59.57;;;31.67;;
19329;SDS011;9799;48.214;16.388;2022-11-15T09:23:22;67.73;;;33.40;;
19329;SDS011;9799;48.214;16.388;2022-11-15T09:26:44;69.03;;;33.17;;
19329;SDS011;9799;48.214;16.388;2022-11-15T09:30:05;62.00;;;31.50;;
19329;SDS011;9799;48.214;16.388;2022-11-15T09:33:27;58.47;;;30.93;;
19329;SDS011;9799;48.214;16.388;2022-11-15T09:36:50;61.83;;;31.50;;
19329;SDS011;9799;48.214;16.388;2022-11-15T09:40:11;63.27;;;29.13;;
19329;SDS011;9799;48.214;16.388;2022-11-15T09:43:37;53.97;;;27.57;;
19329;SDS011;9799;48.214;16.388;2022-11-15T09:47:06;68.30;;;32.47;;
19329;SDS011;9799;48.214;16.388;2022-11-15T09:50:38;63.70;;;30.50;;
19329;SDS011;9799;48.214;16.388;2022-11-15T09:54:05;63.07;;;30.57;;
19329;SDS011;9799;48.214;16.388;2022-11-15T09:57:32;59.60;;;31.93;;
19329;SDS011;9799;48.214;16.388;2022-11-15T10:01:02;72.30;;;31.93;;
19329;SDS011;9799;48.214;16.388;2022-11-15T10:04:27;53.53;;;29.93;;
19329;SDS011;9799;48.214;16.388;2022-11-15T10:07:50;60.03;;;30.43;;
19329;SDS011;9799;48.214;16.388;2022-11-15T10:11:19;63.80;;;33.07;;
19329;SDS011;9799;48.214;16.388;2022-11-15T10:14:42;67.97;;;31.63;;
19329;SDS011;9799;48.214;16.388;2022-11-15T10:18:06;66.90;;;33.70;;
19329;SDS011;9799;48.214;16.388;2022-11-15T10:21:37;66.47;;;32.43;;
19329;SDS011;9799;48.214;16.388;2022-11-15T10:25:12;75.57;;;33.43;;
19329;SDS011;9799;48.214;16.388;2022-11-15T10:28:40;66.57;;;32.70;;
19329;SDS011;9799;48.214;16.388;2022-11-15T10:32:01;62.50;;;32.03;;
19329;SDS011;9799;48.214;16.388;2022-11-15T10:35:23;67.77;;;32.50;;
19329;SDS011;9799;48.214;16.388;2022-11-15T10:38:56;56.07;;;29.90;;
19329;SDS011;9799;48.214;16.388;2022-11-15T10:42:28;61.37;;;30.63;;
19329;SDS011;9799;48.214;16.388;2022-11-15T10:45:51;56.63;;;28.43;;
19329;SDS011;9799;48.214;16.388;2022-11-15T10:49:13;56.30;;;28.83;;
19329;SDS011;9799;48.214;16.388;2022-11-15T10:52:35;59.47;;;27.83;;
19329;SDS011;9799;48.214;16.388;2022-11-15T10:56:00;56.50;;;27.97;;
19329;SDS011;9799;48.214;16.388;2022-11-15T10:59:26;60.13;;;29.07;;
19329;SDS011;9799;48.214;16.388;2022-11-15T11:02:57;59.10;;;29.80;;
19329;SDS011;9799;48.214;16.388;2022-11-15T11:06:20;57.77;;;30.43;;
19329;SDS011;9799;48.214;16.388;2022-11-15T11:09:41;63.80;;;33.00;;
19329;SDS011;9799;48.214;16.388;2022-11-15T11:13:12;71.23;;;33.97;;
19329;SDS011;9799;48.214;16.388;2022-11-15T11:16:38;62.97;;;32.27;;
19329;SDS011;9799;48.214;16.388;2022-11-15T11:20:09;70.03;;;33.10;;
19329;SDS011;9799;48.214;16.388;2022-11-15T11:23:41;58.80;;;30.70;;
19329;SDS011;9799;48.214;16.388;2022-11-15T11:27:17;61.77;;;29.97;;
19329;SDS011;9799;48.214;16.388;2022-11-15T11:30:47;66.47;;;31.23;;
19329;SDS011;9799;48.214;16.388;2022-11-15T11:34:17;57.77;;;32.03;;
19329;SDS011;9799;48.214;16.388;2022-11-15T11:37:51;66.23;;;33.37;;
19329;SDS011;9799;48.214;16.388;2022-11-15T11:41:18;66.10;;;35.17;;
19329;SDS011;9799;48.214;16.388;2022-11-15T11:44:49;53.47;;;32.27;;
19329;SDS011;9799;48.214;16.388;2022-11-15T11:48:23;59.57;;;31.50;;
19329;SDS011;9799;48.214;16.388;2022-11-15T11:52:00;54.30;;;29.03;;
19329;SDS011;9799;48.214;16.388;2022-11-15T11:55:28;58.33;;;34.10;;
19329;SDS011;9799;48.214;16.388;2022-11-15T11:58:56;58.83;;;30.13;;
19329;SDS011;9799;48.214;16.388;2022-11-15T12:02:27;49.30;;;27.23;;
19329;SDS011;9799;48.214;16.388;2022-11-15T12:05:51;51.27;;;27.93;;
19329;SDS011;9799;48.214;16.388;2022-11-15T12:09:17;57.47;;;29.17;;
19329;SDS011;9799;48.214;16.388;2022-11-15T12:12:44;60.47;;;30.13;;
19329;SDS011;9799;48.214;16.388;2022-11-15T12:16:12;64.80;;;31.47;;
19329;SDS011;9799;48.214;16.388;2022-11-15T12:19:36;66.77;;;32.83;;
19329;SDS011;9799;48.214;16.388;2022-11-15T12:23:06;58.30;;;33.03;;
19329;SDS011;9799;48.214;16.388;2022-11-15T12:26:35;62.30;;;31.30;;
19329;SDS011;9799;48.214;16.388;2022-11-15T12:30:03;59.33;;;32.03;;
19329;SDS011;9799;48.214;16.388;2022-11-15T12:33:30;65.83;;;34.47;;
19329;SDS011;9799;48.214;16.388;2022-11-15T12:36:56;65.97;;;33.30;;
19329;SDS011;9799;48.214;16.388;2022-11-15T12:40:19;63.40;;;34.70;;
19329;SDS011;9799;48.214;16.388;2022-11-15T12:43:48;69.23;;;34.43;;
19329;SDS011;9799;48.214;16.388;2022-11-15T12:47:23;64.83;;;33.77;;
19329;SDS011;9799;48.214;16.388;2022-11-15T12:50:52;67.97;;;33.90;;
19329;SDS011;9799;48.214;16.388;2022-11-15T12:58:26;58.33;;;32.77;;
19329;SDS011;9799;48.214;16.388;2022-11-15T13:01:56;62.27;;;33.83;;
19329;SDS011;9799;48.214;16.388;2022-11-15T13:13:16;76.70;;;34.93;;
19329;SDS011;9799;48.214;16.388;2022-11-15T13:17:20;64.23;;;34.23;;
19329;SDS011;9799;48.214;16.388;2022-11-15T13:20:54;59.90;;;32.97;;
19329;SDS011;9799;48.214;16.388;2022-11-15T13:24:15;51.70;;;30.97;;
19329;SDS011;9799;48.214;16.388;2022-11-15T13:27:37;49.30;;;30.23;;
19329;SDS011;9799;48.214;16.388;2022-11-15T13:31:02;54.33;;;31.30;;
19329;SDS011;9799;48.214;16.388;2022-11-15T13:34:36;51.83;;;30.70;;
19329;SDS011;9799;48.214;16.388;2022-11-15T13:37:59;50.73;;;30.47;;
19329;SDS011;9799;48.214;16.388;2022-11-15T13:41:25;51.57;;;31.40;;
19329;SDS011;9799;48.214;16.388;2022-11-15T13:44:54;55.73;;;38.37;;
19329;SDS011;9799;48.214;16.388;2022-11-15T13:48:17;51.53;;;31.70;;
19329;SDS011;9799;48.214;16.388;2022-11-15T13:51:40;48.83;;;30.77;;
19329;SDS011;9799;48.214;16.388;2022-11-15T13:55:09;48.93;;;31.33;;
19329;SDS011;9799;48.214;16.388;2022-11-15T13:58:33;46.73;;;31.13;;
19329;SDS011;9799;48.214;16.388;2022-11-15T14:02:01;46.80;;;30.07;;
19329;SDS011;9799;48.214;16.388;2022-11-15T14:05:31;44.73;;;27.73;;
19329;SDS011;9799;48.214;16.388;2022-11-15T14:12:51;40.77;;;27.10;;
19329;SDS011;9799;48.214;16.388;2022-11-15T14:16:13;44.40;;;27.17;;
19329;SDS011;9799;48.214;16.388;2022-11-15T14:19:37;45.43;;;28.33;;
19329;SDS011;9799;48.214;16.388;2022-11-15T14:23:01;44.93;;;29.13;;
19329;SDS011;9799;48.214;16.388;2022-11-15T14:26:28;43.83;;;29.57;;
19329;SDS011;9799;48.214;16.388;2022-11-15T14:29:52;45.80;;;29.37;;
19329;SDS011;9799;48.214;16.388;2022-11-15T14:33:17;44.23;;;28.93;;
19329;SDS011;9799;48.214;16.388;2022-11-15T14:36:43;50.93;;;31.33;;
19329;SDS011;9799;48.214;16.388;2022-11-15T14:40:05;48.30;;;30.73;;
19329;SDS011;9799;48.214;16.388;2022-11-15T14:43:28;47.47;;;30.90;;
19329;SDS011;9799;48.214;16.388;2022-11-15T14:46:51;47.87;;;31.17;;
19329;SDS011;9799;48.214;16.388;2022-11-15T14:50:13;52.07;;;32.63;;
19329;SDS011;9799;48.214;16.388;2022-11-15T14:53:35;51.90;;;32.83;;
19329;SDS011;9799;48.214;16.388;2022-11-15T14:56:56;55.60;;;33.13;;
19329;SDS011;9799;48.214;16.388;2022-11-15T15:00:18;56.93;;;35.00;;
19329;SDS011;9799;48.214;16.388;2022-11-15T15:03:41;50.87;;;32.50;;
19329;SDS011;9799;48.214;16.388;2022-11-15T15:07:03;62.07;;;35.57;;
19329;SDS011;9799;48.214;16.388;2022-11-15T15:10:24;57.87;;;35.00;;
19329;SDS011;9799;48.214;16.388;2022-11-15T15:13:48;52.10;;;33.80;;
19329;SDS011;9799;48.214;16.388;2022-11-15T15:17:09;56.03;;;34.70;;
19329;SDS011;9799;48.214;16.388;2022-11-15T15:20:32;54.73;;;32.63;;
19329;SDS011;9799;48.214;16.388;2022-11-15T15:23:53;50.93;;;32.97;;
19329;SDS011;9799;48.214;16.388;2022-11-15T15:27:15;50.63;;;32.90;;
19329;SDS011;9799;48.214;16.388;2022-11-15T15:30:37;50.97;;;32.93;;
19329;SDS011;9799;48.214;16.388;2022-11-15T15:33:58;51.10;;;32.03;;
19329;SDS011;9799;48.214;16.388;2022-11-15T15:37:23;52.73;;;31.70;;
19329;SDS011;9799;48.214;16.388;2022-11-15T15:40:45;54.60;;;34.03;;
19329;SDS011;9799;48.214;16.388;2022-11-15T15:44:09;51.27;;;32.27;;
19329;SDS011;9799;48.214;16.388;2022-11-15T15:47:31;57.03;;;36.70;;
19329;SDS011;9799;48.214;16.388;2022-11-15T15:50:52;56.03;;;33.97;;
19329;SDS011;9799;48.214;16.388;2022-11-15T15:54:15;55.90;;;33.37;;
19329;SDS011;9799;48.214;16.388;2022-11-15T15:57:36;57.00;;;33.77;;
19329;SDS011;9799;48.214;16.388;2022-11-15T16:00:57;57.33;;;34.10;;
19329;SDS011;9799;48.214;16.388;2022-11-15T16:04:18;57.23;;;34.60;;
19329;SDS011;9799;48.214;16.388;2022-11-15T16:07:40;58.43;;;35.20;;
19329;SDS011;9799;48.214;16.388;2022-11-15T16:11:03;51.53;;;33.27;;
19329;SDS011;9799;48.214;16.388;2022-11-15T16:14:25;51.93;;;32.20;;
19329;SDS011;9799;48.214;16.388;2022-11-15T16:17:47;47.20;;;31.17;;
19329;SDS011;9799;48.214;16.388;2022-11-15T16:21:10;50.87;;;31.60;;
19329;SDS011;9799;48.214;16.388;2022-11-15T16:24:31;51.33;;;32.03;;
19329;SDS011;9799;48.214;16.388;2022-11-15T16:27:54;53.47;;;31.90;;
19329;SDS011;9799;48.214;16.388;2022-11-15T16:31:15;53.00;;;32.43;;
19329;SDS011;9799;48.214;16.388;2022-11-15T16:34:40;47.43;;;30.10;;
19329;SDS011;9799;48.214;16.388;2022-11-15T16:38:02;50.70;;;30.60;;
19329;SDS011;9799;48.214;16.388;2022-11-15T16:41:23;48.20;;;28.43;;
19329;SDS011;9799;48.214;16.388;2022-11-15T16:44:46;46.40;;;30.00;;
19329;SDS011;9799;48.214;16.388;2022-11-15T16:48:10;45.93;;;27.83;;
19329;SDS011;9799;48.214;16.388;2022-11-15T16:51:41;47.90;;;29.07;;
19329;SDS011;9799;48.214;16.388;2022-11-15T16:55:03;45.53;;;28.17;;
19329;SDS011;9799;48.214;16.388;2022-11-15T16:58:25;45.03;;;25.90;;
19329;SDS011;9799;48.214;16.388;2022-11-15T17:01:48;45.60;;;28.47;;
19329;SDS011;9799;48.214;16.388;2022-11-15T17:05:12;42.23;;;25.13;;
19329;SDS011;9799;48.214;16.388;2022-11-15T17:08:34;43.50;;;24.57;;
19329;SDS011;9799;48.214;16.388;2022-11-15T17:11:55;44.83;;;25.97;;
19329;SDS011;9799;48.214;16.388;2022-11-15T17:15:17;45.27;;;26.97;;
19329;SDS011;9799;48.214;16.388;2022-11-15T17:18:40;41.80;;;25.83;;
19329;SDS011;9799;48.214;16.388;2022-11-15T17:22:04;42.70;;;26.37;;
19329;SDS011;9799;48.214;16.388;2022-11-15T17:25:25;70.90;;;45.33;;
19329;SDS011;9799;48.214;16.388;2022-11-15T17:28:47;47.63;;;29.57;;
19329;SDS011;9799;48.214;16.388;2022-11-15T17:32:08;53.20;;;27.93;;
19329;SDS011;9799;48.214;16.388;2022-11-15T17:35:33;47.03;;;28.20;;
19329;SDS011;9799;48.214;16.388;2022-11-15T17:38:54;49.17;;;27.70;;
19329;SDS011;9799;48.214;16.388;2022-11-15T17:42:15;47.07;;;27.20;;
19329;SDS011;9799;48.214;16.388;2022-11-15T17:45:38;46.37;;;28.20;;
19329;SDS011;9799;48.214;16.388;2022-11-15T17:49:00;53.87;;;29.67;;
19329;SDS011;9799;48.214;16.388;2022-11-15T17:52:23;47.33;;;27.83;;
19329;SDS011;9799;48.214;16.388;2022-11-15T17:55:46;45.47;;;28.23;;
19329;SDS011;9799;48.214;16.388;2022-11-15T17:59:07;44.80;;;27.43;;
19329;SDS011;9799;48.214;16.388;2022-11-15T18:02:29;45.83;;;27.77;;
19329;SDS011;9799;48.214;16.388;2022-11-15T18:05:50;48.60;;;26.77;;
19329;SDS011;9799;48.214;16.388;2022-11-15T18:09:14;46.00;;;27.57;;
19329;SDS011;9799;48.214;16.388;2022-11-15T18:12:35;51.80;;;32.53;;
19329;SDS011;9799;48.214;16.388;2022-11-15T18:15:57;40.00;;;27.03;;
19329;SDS011;9799;48.214;16.388;2022-11-15T18:19:22;44.70;;;26.30;;
19329;SDS011;9799;48.214;16.388;2022-11-15T18:22:43;41.87;;;25.50;;
19329;SDS011;9799;48.214;16.388;2022-11-15T18:26:06;44.40;;;26.33;;
19329;SDS011;9799;48.214;16.388;2022-11-15T18:29:31;39.43;;;24.27;;
19329;SDS011;9799;48.214;16.388;2022-11-15T18:32:56;41.63;;;25.57;;
19329;SDS011;9799;48.214;16.388;2022-11-15T18:36:18;48.80;;;26.40;;
19329;SDS011;9799;48.214;16.388;2022-11-15T18:39:41;41.20;;;25.67;;
19329;SDS011;9799;48.214;16.388;2022-11-15T18:43:05;48.37;;;27.17;;
19329;SDS011;9799;48.214;16.388;2022-11-15T18:46:27;39.03;;;26.63;;
19329;SDS011;9799;48.214;16.388;2022-11-15T18:49:50;39.53;;;25.87;;
19329;SDS011;9799;48.214;16.388;2022-11-15T18:53:12;43.37;;;25.73;;
19329;SDS011;9799;48.214;16.388;2022-11-15T18:56:34;47.67;;;28.03;;
19329;SDS011;9799;48.214;16.388;2022-11-15T18:59:59;43.73;;;27.00;;
19329;SDS011;9799;48.214;16.388;2022-11-15T19:03:21;44.77;;;24.00;;
19329;SDS011;9799;48.214;16.388;2022-11-15T19:06:43;40.30;;;22.93;;
19329;SDS011;9799;48.214;16.388;2022-11-15T19:10:06;31.00;;;20.23;;
19329;SDS011;9799;48.214;16.388;2022-11-15T19:13:30;37.53;;;21.57;;
19329;SDS011;9799;48.214;16.388;2022-11-15T19:16:53;35.03;;;22.00;;
19329;SDS011;9799;48.214;16.388;2022-11-15T19:20:15;36.80;;;21.83;;
19329;SDS011;9799;48.214;16.388;2022-11-15T19:23:38;34.50;;;20.53;;
19329;SDS011;9799;48.214;16.388;2022-11-15T19:27:01;33.70;;;20.90;;
19329;SDS011;9799;48.214;16.388;2022-11-15T19:30:23;32.40;;;20.00;;
19329;SDS011;9799;48.214;16.388;2022-11-15T19:33:48;32.40;;;20.50;;
19329;SDS011;9799;48.214;16.388;2022-11-15T19:37:11;30.00;;;19.77;;
19329;SDS011;9799;48.214;16.388;2022-11-15T19:43:54;31.47;;;20.37;;
19329;SDS011;9799;48.214;16.388;2022-11-15T19:47:15;31.03;;;19.57;;
19329;SDS011;9799;48.214;16.388;2022-11-15T19:50:39;31.30;;;18.67;;
19329;SDS011;9799;48.214;16.388;2022-11-15T19:54:01;30.10;;;19.07;;
19329;SDS011;9799;48.214;16.388;2022-11-15T19:57:27;31.23;;;19.30;;
19329;SDS011;9799;48.214;16.388;2022-11-15T20:00:57;32.67;;;21.03;;
19329;SDS011;9799;48.214;16.388;2022-11-15T20:04:22;30.27;;;19.23;;
19329;SDS011;9799;48.214;16.388;2022-11-15T20:07:47;30.53;;;21.07;;
19329;SDS011;9799;48.214;16.388;2022-11-15T20:11:10;29.77;;;19.00;;
19329;SDS011;9799;48.214;16.388;2022-11-15T20:14:32;31.43;;;19.57;;
19329;SDS011;9799;48.214;16.388;2022-11-15T20:17:54;35.43;;;20.23;;